This is the latest recevied weather packets stored in our database for station/object LKCS. If no packets are shown the sender has not sent any weather packets the latest 10 day(s).
| Time | Temp. | Humidity | Pressure | Rain* | Wind** | Luminosity | Snow |
|---|---|---|---|---|---|---|---|
| 1787504586 | 21.11° C | 46% | 1021 hPa | - | - | - | - |
| 1787502785 | 21.11° C | 43% | 1021 hPa | - | - | - | - |
| 1787500966 | 22.22° C | 40% | 1021 hPa | - | - | - | - |
| 1787499158 | 22.22° C | 40% | 1021 hPa | - | - | - | - |
| 1787497395 | 22.22° C | 43% | 1021 hPa | - | - | - | - |
| 1787495565 | 22.22° C | 43% | 1021 hPa | - | - | - | - |
| 1787493795 | 22.22° C | 43% | 1021 hPa | - | - | - | - |
| 1787491965 | 22.22° C | 40% | 1022 hPa | - | - | - | - |
| 1787490168 | 21.11° C | 46% | 1022 hPa | - | - | - | - |
| 1787488385 | 21.11° C | 46% | 1022 hPa | - | - | - | - |
| 1787486559 | 21.11° C | 46% | 1022 hPa | - | - | - | - |
| 1787484785 | 21.11° C | 46% | 1022 hPa | - | - | - | - |
| 1787482992 | 20° C | 52% | 1022 hPa | - | - | - | - |
| 1787481165 | 20° C | 49% | 1022 hPa | - | - | - | - |
| 1787479392 | 20° C | 49% | 1023 hPa | - | - | - | - |
| 1787477558 | 18.89° C | 55% | 1023 hPa | - | - | - | - |
| 1787475766 | 17.78° C | 59% | 1023 hPa | - | - | - | - |
| 1787473958 | 17.22° C | 63% | 1023 hPa | - | - | - | - |
| 1787472186 | 17.22° C | 63% | 1023 hPa | - | - | - | - |
| 1787470385 | 16.11° C | 67% | 1023 hPa | - | - | - | - |
| 1787468593 | 15° C | 72% | 1023 hPa | - | - | - | - |
| 1787466785 | 12.78° C | 82% | 1023 hPa | - | - | - | - |
| 1787464993 | 12.22° C | 87% | 1023 hPa | - | - | - | - |
| 1787463183 | 12.22° C | 81% | 1023 hPa | - | - | - | - |
| 1787461385 | 10° C | 87% | 1023 hPa | - | - | - | - |
* Rain since midnight (hover to see other rain measurements)
** Current wind speed in m/s (hover to see current wind gust speed)